sensor_id;sensor_type;location;lat;lon;timestamp;temperature;humidity
70550;DHT22;58101;48.658;2.328;2024-03-02T00:01:10;6.30;99.90
70550;DHT22;58101;48.658;2.328;2024-03-02T00:03:39;6.30;99.90
70550;DHT22;58101;48.658;2.328;2024-03-02T00:06:06;6.30;99.90
70550;DHT22;58101;48.658;2.328;2024-03-02T00:08:32;6.20;99.90
70550;DHT22;58101;48.658;2.328;2024-03-02T00:10:59;6.20;99.90
70550;DHT22;58101;48.658;2.328;2024-03-02T00:13:24;6.20;99.90
70550;DHT22;58101;48.658;2.328;2024-03-02T00:15:53;6.20;99.90
70550;DHT22;58101;48.658;2.328;2024-03-02T00:20:46;6.20;99.90
70550;DHT22;58101;48.658;2.328;2024-03-02T00:23:15;6.20;99.90
70550;DHT22;58101;48.658;2.328;2024-03-02T00:25:44;6.20;99.90
70550;DHT22;58101;48.658;2.328;2024-03-02T00:28:36;6.30;99.90
70550;DHT22;58101;48.658;2.328;2024-03-02T00:31:10;6.10;99.90
70550;DHT22;58101;48.658;2.328;2024-03-02T00:33:44;6.10;99.90
70550;DHT22;58101;48.658;2.328;2024-03-02T00:36:15;6.10;99.90
70550;DHT22;58101;48.658;2.328;2024-03-02T00:38:50;6.10;99.90
70550;DHT22;58101;48.658;2.328;2024-03-02T00:44:04;6.10;99.90
70550;DHT22;58101;48.658;2.328;2024-03-02T00:46:35;6.10;99.90
70550;DHT22;58101;48.658;2.328;2024-03-02T00:49:04;6.10;99.90
70550;DHT22;58101;48.658;2.328;2024-03-02T00:51:31;6.10;99.90
70550;DHT22;58101;48.658;2.328;2024-03-02T00:54:03;6.00;99.90
70550;DHT22;58101;48.658;2.328;2024-03-02T00:56:30;6.00;99.90
70550;DHT22;58101;48.658;2.328;2024-03-02T00:58:56;6.00;99.90
70550;DHT22;58101;48.658;2.328;2024-03-02T01:01:21;6.00;99.90
70550;DHT22;58101;48.658;2.328;2024-03-02T01:03:48;6.00;99.90
70550;DHT22;58101;48.658;2.328;2024-03-02T01:06:15;6.00;99.90
70550;DHT22;58101;48.658;2.328;2024-03-02T01:08:41;6.00;99.90
70550;DHT22;58101;48.658;2.328;2024-03-02T01:11:07;5.90;99.90
70550;DHT22;58101;48.658;2.328;2024-03-02T01:13:33;5.90;99.90
70550;DHT22;58101;48.658;2.328;2024-03-02T01:15:59;6.00;99.90
70550;DHT22;58101;48.658;2.328;2024-03-02T01:18:25;5.90;99.90
70550;DHT22;58101;48.658;2.328;2024-03-02T01:20:51;5.90;99.90
70550;DHT22;58101;48.658;2.328;2024-03-02T01:23:22;5.90;99.90
70550;DHT22;58101;48.658;2.328;2024-03-02T01:25:47;5.90;99.90
70550;DHT22;58101;48.658;2.328;2024-03-02T01:28:14;5.90;99.90
70550;DHT22;58101;48.658;2.328;2024-03-02T01:30:40;5.90;99.90
70550;DHT22;58101;48.658;2.328;2024-03-02T01:33:06;5.90;99.90
70550;DHT22;58101;48.658;2.328;2024-03-02T01:35:32;5.80;99.90
70550;DHT22;58101;48.658;2.328;2024-03-02T01:37:58;5.80;99.90
70550;DHT22;58101;48.658;2.328;2024-03-02T01:40:23;6.00;99.90
70550;DHT22;58101;48.658;2.328;2024-03-02T01:42:52;5.80;99.90
70550;DHT22;58101;48.658;2.328;2024-03-02T01:45:19;5.80;99.90
70550;DHT22;58101;48.658;2.328;2024-03-02T01:47:45;5.80;99.90
70550;DHT22;58101;48.658;2.328;2024-03-02T01:50:14;5.90;99.90
70550;DHT22;58101;48.658;2.328;2024-03-02T01:52:40;5.80;99.90
70550;DHT22;58101;48.658;2.328;2024-03-02T01:55:06;5.90;99.90
70550;DHT22;58101;48.658;2.328;2024-03-02T01:57:33;5.90;99.90
70550;DHT22;58101;48.658;2.328;2024-03-02T01:59:59;5.90;99.90
70550;DHT22;58101;48.658;2.328;2024-03-02T02:02:25;5.90;99.90
70550;DHT22;58101;48.658;2.328;2024-03-02T02:04:51;5.90;99.90
70550;DHT22;58101;48.658;2.328;2024-03-02T02:07:16;5.90;99.90
70550;DHT22;58101;48.658;2.328;2024-03-02T02:09:43;5.90;99.90
70550;DHT22;58101;48.658;2.328;2024-03-02T02:12:12;5.90;99.90
70550;DHT22;58101;48.658;2.328;2024-03-02T02:14:37;5.80;99.90
70550;DHT22;58101;48.658;2.328;2024-03-02T02:17:05;5.90;99.90
70550;DHT22;58101;48.658;2.328;2024-03-02T02:19:30;6.00;99.90
70550;DHT22;58101;48.658;2.328;2024-03-02T02:21:56;5.90;99.90
70550;DHT22;58101;48.658;2.328;2024-03-02T02:24:22;5.90;99.90
70550;DHT22;58101;48.658;2.328;2024-03-02T02:26:47;5.80;99.90
70550;DHT22;58101;48.658;2.328;2024-03-02T02:29:13;5.80;99.90
70550;DHT22;58101;48.658;2.328;2024-03-02T02:31:40;5.80;99.90
70550;DHT22;58101;48.658;2.328;2024-03-02T02:34:06;5.70;99.90
70550;DHT22;58101;48.658;2.328;2024-03-02T02:36:33;5.70;99.90
70550;DHT22;58101;48.658;2.328;2024-03-02T02:39:01;5.70;99.90
70550;DHT22;58101;48.658;2.328;2024-03-02T02:41:29;5.60;99.90
70550;DHT22;58101;48.658;2.328;2024-03-02T02:43:55;5.60;99.90
70550;DHT22;58101;48.658;2.328;2024-03-02T02:46:20;5.60;99.90
70550;DHT22;58101;48.658;2.328;2024-03-02T02:48:46;5.50;99.90
70550;DHT22;58101;48.658;2.328;2024-03-02T02:51:12;5.50;99.90
70550;DHT22;58101;48.658;2.328;2024-03-02T02:53:37;5.50;99.90
70550;DHT22;58101;48.658;2.328;2024-03-02T02:56:06;5.40;99.90
70550;DHT22;58101;48.658;2.328;2024-03-02T02:58:32;5.40;99.90
70550;DHT22;58101;48.658;2.328;2024-03-02T03:00:57;5.40;99.90
70550;DHT22;58101;48.658;2.328;2024-03-02T03:03:23;5.40;99.90
70550;DHT22;58101;48.658;2.328;2024-03-02T03:05:49;5.40;99.90
70550;DHT22;58101;48.658;2.328;2024-03-02T03:08:14;5.40;99.90
70550;DHT22;58101;48.658;2.328;2024-03-02T03:10:41;5.40;99.90
70550;DHT22;58101;48.658;2.328;2024-03-02T03:13:07;5.40;99.90
70550;DHT22;58101;48.658;2.328;2024-03-02T03:15:36;5.40;99.90
70550;DHT22;58101;48.658;2.328;2024-03-02T03:18:03;5.30;99.90
70550;DHT22;58101;48.658;2.328;2024-03-02T03:20:30;5.30;99.90
70550;DHT22;58101;48.658;2.328;2024-03-02T03:22:56;5.30;99.90
70550;DHT22;58101;48.658;2.328;2024-03-02T03:25:22;5.30;99.90
70550;DHT22;58101;48.658;2.328;2024-03-02T03:27:47;5.30;99.90
70550;DHT22;58101;48.658;2.328;2024-03-02T03:30:13;5.30;99.90
70550;DHT22;58101;48.658;2.328;2024-03-02T03:32:39;5.30;99.90
70550;DHT22;58101;48.658;2.328;2024-03-02T03:35:05;5.30;99.90
70550;DHT22;58101;48.658;2.328;2024-03-02T03:37:31;5.30;99.90
70550;DHT22;58101;48.658;2.328;2024-03-02T03:39:59;5.30;99.90
70550;DHT22;58101;48.658;2.328;2024-03-02T03:42:25;5.30;99.90
70550;DHT22;58101;48.658;2.328;2024-03-02T03:44:51;5.30;99.90
70550;DHT22;58101;48.658;2.328;2024-03-02T03:47:17;5.30;99.90
70550;DHT22;58101;48.658;2.328;2024-03-02T03:49:42;5.30;99.90
70550;DHT22;58101;48.658;2.328;2024-03-02T03:52:08;5.30;99.90
70550;DHT22;58101;48.658;2.328;2024-03-02T03:54:33;5.30;99.90
70550;DHT22;58101;48.658;2.328;2024-03-02T03:56:59;5.30;99.90
70550;DHT22;58101;48.658;2.328;2024-03-02T03:59:24;5.30;99.90
70550;DHT22;58101;48.658;2.328;2024-03-02T04:01:50;5.30;99.90
70550;DHT22;58101;48.658;2.328;2024-03-02T04:04:16;5.30;99.90
70550;DHT22;58101;48.658;2.328;2024-03-02T04:06:42;5.30;99.90
70550;DHT22;58101;48.658;2.328;2024-03-02T04:09:08;5.30;99.90
70550;DHT22;58101;48.658;2.328;2024-03-02T04:11:33;5.30;99.90
70550;DHT22;58101;48.658;2.328;2024-03-02T04:13:59;5.30;99.90
70550;DHT22;58101;48.658;2.328;2024-03-02T04:16:24;5.30;99.90
70550;DHT22;58101;48.658;2.328;2024-03-02T04:18:50;5.30;99.90
70550;DHT22;58101;48.658;2.328;2024-03-02T04:21:16;5.30;99.90
70550;DHT22;58101;48.658;2.328;2024-03-02T04:23:41;5.30;99.90
70550;DHT22;58101;48.658;2.328;2024-03-02T04:26:07;5.30;99.90
70550;DHT22;58101;48.658;2.328;2024-03-02T04:28:32;5.30;99.90
70550;DHT22;58101;48.658;2.328;2024-03-02T04:30:58;5.30;99.90
70550;DHT22;58101;48.658;2.328;2024-03-02T04:33:23;5.30;99.90
70550;DHT22;58101;48.658;2.328;2024-03-02T04:35:49;5.30;99.90
70550;DHT22;58101;48.658;2.328;2024-03-02T04:38:14;5.30;99.90
70550;DHT22;58101;48.658;2.328;2024-03-02T04:40:40;5.30;99.90
70550;DHT22;58101;48.658;2.328;2024-03-02T04:43:06;5.30;99.90
70550;DHT22;58101;48.658;2.328;2024-03-02T04:45:33;5.30;99.90
70550;DHT22;58101;48.658;2.328;2024-03-02T04:47:59;5.30;99.90
70550;DHT22;58101;48.658;2.328;2024-03-02T04:50:25;5.30;99.90
70550;DHT22;58101;48.658;2.328;2024-03-02T04:52:50;5.30;99.90
70550;DHT22;58101;48.658;2.328;2024-03-02T04:55:16;5.30;99.90
70550;DHT22;58101;48.658;2.328;2024-03-02T04:57:41;5.30;99.90
70550;DHT22;58101;48.658;2.328;2024-03-02T05:00:07;5.30;99.90
70550;DHT22;58101;48.658;2.328;2024-03-02T05:02:34;5.30;99.90
70550;DHT22;58101;48.658;2.328;2024-03-02T05:05:00;5.30;99.90
70550;DHT22;58101;48.658;2.328;2024-03-02T05:07:25;5.30;99.90
70550;DHT22;58101;48.658;2.328;2024-03-02T05:09:51;5.30;99.90
70550;DHT22;58101;48.658;2.328;2024-03-02T05:12:17;5.30;99.90
70550;DHT22;58101;48.658;2.328;2024-03-02T05:15:03;5.30;99.90
70550;DHT22;58101;48.658;2.328;2024-03-02T05:17:29;5.30;99.90
70550;DHT22;58101;48.658;2.328;2024-03-02T05:19:54;5.30;99.90
70550;DHT22;58101;48.658;2.328;2024-03-02T05:22:20;5.30;99.90
70550;DHT22;58101;48.658;2.328;2024-03-02T05:24:45;5.40;99.90
70550;DHT22;58101;48.658;2.328;2024-03-02T05:27:11;5.40;99.90
70550;DHT22;58101;48.658;2.328;2024-03-02T05:29:36;5.40;99.90
70550;DHT22;58101;48.658;2.328;2024-03-02T05:32:02;5.40;99.90
70550;DHT22;58101;48.658;2.328;2024-03-02T05:34:28;5.40;99.90
70550;DHT22;58101;48.658;2.328;2024-03-02T05:36:54;5.40;99.90
70550;DHT22;58101;48.658;2.328;2024-03-02T05:39:19;5.50;99.90
70550;DHT22;58101;48.658;2.328;2024-03-02T05:41:45;5.50;99.90
70550;DHT22;58101;48.658;2.328;2024-03-02T05:44:10;5.50;99.90
70550;DHT22;58101;48.658;2.328;2024-03-02T05:46:37;5.50;99.90
70550;DHT22;58101;48.658;2.328;2024-03-02T05:49:03;5.50;99.90
70550;DHT22;58101;48.658;2.328;2024-03-02T05:51:29;5.50;99.90
70550;DHT22;58101;48.658;2.328;2024-03-02T05:53:54;5.50;99.90
70550;DHT22;58101;48.658;2.328;2024-03-02T05:56:20;5.50;99.90
70550;DHT22;58101;48.658;2.328;2024-03-02T05:58:45;5.50;99.90
70550;DHT22;58101;48.658;2.328;2024-03-02T06:01:17;5.60;99.90
70550;DHT22;58101;48.658;2.328;2024-03-02T06:03:43;5.60;99.90
70550;DHT22;58101;48.658;2.328;2024-03-02T06:06:09;5.60;99.90
70550;DHT22;58101;48.658;2.328;2024-03-02T06:08:35;5.60;99.90
70550;DHT22;58101;48.658;2.328;2024-03-02T06:11:01;5.60;99.90
70550;DHT22;58101;48.658;2.328;2024-03-02T06:13:26;5.60;99.90
70550;DHT22;58101;48.658;2.328;2024-03-02T06:15:52;5.70;99.90
70550;DHT22;58101;48.658;2.328;2024-03-02T06:18:18;5.70;99.90
70550;DHT22;58101;48.658;2.328;2024-03-02T06:20:43;5.70;99.90
70550;DHT22;58101;48.658;2.328;2024-03-02T06:23:09;5.70;99.90
70550;DHT22;58101;48.658;2.328;2024-03-02T06:25:36;5.70;99.90
70550;DHT22;58101;48.658;2.328;2024-03-02T06:28:02;5.80;99.90
70550;DHT22;58101;48.658;2.328;2024-03-02T06:30:28;5.80;99.90
70550;DHT22;58101;48.658;2.328;2024-03-02T06:32:53;5.80;99.90
70550;DHT22;58101;48.658;2.328;2024-03-02T06:35:19;5.80;99.90
70550;DHT22;58101;48.658;2.328;2024-03-02T06:37:44;5.80;99.90
70550;DHT22;58101;48.658;2.328;2024-03-02T06:40:10;5.80;99.90
70550;DHT22;58101;48.658;2.328;2024-03-02T06:42:36;6.10;99.90
70550;DHT22;58101;48.658;2.328;2024-03-02T06:45:02;5.90;99.90
70550;DHT22;58101;48.658;2.328;2024-03-02T06:47:28;5.90;99.90
70550;DHT22;58101;48.658;2.328;2024-03-02T06:49:54;5.90;99.90
70550;DHT22;58101;48.658;2.328;2024-03-02T06:52:19;6.00;99.90
70550;DHT22;58101;48.658;2.328;2024-03-02T06:54:46;6.00;99.90
70550;DHT22;58101;48.658;2.328;2024-03-02T06:57:12;6.10;99.90
70550;DHT22;58101;48.658;2.328;2024-03-02T06:59:37;6.10;99.90
70550;DHT22;58101;48.658;2.328;2024-03-02T07:02:03;6.10;99.90
70550;DHT22;58101;48.658;2.328;2024-03-02T07:04:29;6.20;99.90
70550;DHT22;58101;48.658;2.328;2024-03-02T07:06:54;6.20;99.90
70550;DHT22;58101;48.658;2.328;2024-03-02T07:09:20;6.30;99.90
70550;DHT22;58101;48.658;2.328;2024-03-02T07:11:48;6.30;99.90
70550;DHT22;58101;48.658;2.328;2024-03-02T07:14:14;6.40;99.90
70550;DHT22;58101;48.658;2.328;2024-03-02T07:16:40;6.40;99.90
70550;DHT22;58101;48.658;2.328;2024-03-02T07:19:06;6.40;99.90
70550;DHT22;58101;48.658;2.328;2024-03-02T07:21:32;6.40;99.90
70550;DHT22;58101;48.658;2.328;2024-03-02T07:23:58;6.50;99.90
70550;DHT22;58101;48.658;2.328;2024-03-02T07:26:25;6.50;99.90
70550;DHT22;58101;48.658;2.328;2024-03-02T07:28:51;6.50;99.90
70550;DHT22;58101;48.658;2.328;2024-03-02T07:31:17;6.50;99.90
70550;DHT22;58101;48.658;2.328;2024-03-02T07:33:46;6.60;99.90
70550;DHT22;58101;48.658;2.328;2024-03-02T07:36:12;6.60;99.90
70550;DHT22;58101;48.658;2.328;2024-03-02T07:38:37;6.70;99.90
70550;DHT22;58101;48.658;2.328;2024-03-02T07:41:03;6.70;99.90
70550;DHT22;58101;48.658;2.328;2024-03-02T07:43:30;6.70;99.90
70550;DHT22;58101;48.658;2.328;2024-03-02T07:45:58;6.80;99.90
70550;DHT22;58101;48.658;2.328;2024-03-02T07:48:24;6.80;99.90
70550;DHT22;58101;48.658;2.328;2024-03-02T07:50:50;6.80;99.90
70550;DHT22;58101;48.658;2.328;2024-03-02T07:53:16;6.90;99.90
70550;DHT22;58101;48.658;2.328;2024-03-02T07:55:41;6.90;99.90
70550;DHT22;58101;48.658;2.328;2024-03-02T07:58:07;6.90;99.90
70550;DHT22;58101;48.658;2.328;2024-03-02T08:00:33;7.00;99.90
70550;DHT22;58101;48.658;2.328;2024-03-02T08:02:59;7.00;99.90
70550;DHT22;58101;48.658;2.328;2024-03-02T08:05:25;7.00;99.90
70550;DHT22;58101;48.658;2.328;2024-03-02T08:07:52;7.00;99.90
70550;DHT22;58101;48.658;2.328;2024-03-02T08:10:18;7.10;99.90
70550;DHT22;58101;48.658;2.328;2024-03-02T08:12:44;7.00;99.90
70550;DHT22;58101;48.658;2.328;2024-03-02T08:15:10;7.00;99.90
70550;DHT22;58101;48.658;2.328;2024-03-02T08:17:38;6.90;99.90
70550;DHT22;58101;48.658;2.328;2024-03-02T08:20:06;6.90;99.90
70550;DHT22;58101;48.658;2.328;2024-03-02T08:22:33;7.00;99.90
70550;DHT22;58101;48.658;2.328;2024-03-02T08:24:59;6.90;99.90
70550;DHT22;58101;48.658;2.328;2024-03-02T08:27:24;6.80;99.90
70550;DHT22;58101;48.658;2.328;2024-03-02T08:29:50;6.80;99.90
70550;DHT22;58101;48.658;2.328;2024-03-02T08:32:15;6.80;99.90
70550;DHT22;58101;48.658;2.328;2024-03-02T08:34:42;6.80;99.90
70550;DHT22;58101;48.658;2.328;2024-03-02T08:37:08;6.80;99.90
70550;DHT22;58101;48.658;2.328;2024-03-02T08:39:33;6.80;99.90
70550;DHT22;58101;48.658;2.328;2024-03-02T08:41:59;6.80;99.90
70550;DHT22;58101;48.658;2.328;2024-03-02T08:44:25;6.80;99.90
70550;DHT22;58101;48.658;2.328;2024-03-02T08:46:50;6.90;99.90
70550;DHT22;58101;48.658;2.328;2024-03-02T08:49:16;6.80;99.90
70550;DHT22;58101;48.658;2.328;2024-03-02T08:51:41;6.80;99.90
70550;DHT22;58101;48.658;2.328;2024-03-02T08:54:07;6.80;99.90
70550;DHT22;58101;48.658;2.328;2024-03-02T08:56:33;6.80;99.90
70550;DHT22;58101;48.658;2.328;2024-03-02T08:58:58;7.00;99.90
70550;DHT22;58101;48.658;2.328;2024-03-02T09:01:24;6.90;99.90
70550;DHT22;58101;48.658;2.328;2024-03-02T09:03:50;7.00;99.90
70550;DHT22;58101;48.658;2.328;2024-03-02T09:06:15;7.00;99.90
70550;DHT22;58101;48.658;2.328;2024-03-02T09:08:42;7.00;99.90
70550;DHT22;58101;48.658;2.328;2024-03-02T09:11:10;7.00;99.90
70550;DHT22;58101;48.658;2.328;2024-03-02T09:13:38;7.00;99.90
70550;DHT22;58101;48.658;2.328;2024-03-02T09:16:04;7.10;99.90
70550;DHT22;58101;48.658;2.328;2024-03-02T09:18:30;7.10;99.90
70550;DHT22;58101;48.658;2.328;2024-03-02T09:20:56;7.10;99.90
70550;DHT22;58101;48.658;2.328;2024-03-02T09:23:22;7.10;99.90
70550;DHT22;58101;48.658;2.328;2024-03-02T09:25:47;7.00;99.90
70550;DHT22;58101;48.658;2.328;2024-03-02T09:28:15;7.20;99.90
70550;DHT22;58101;48.658;2.328;2024-03-02T09:30:41;7.20;99.90
70550;DHT22;58101;48.658;2.328;2024-03-02T09:33:06;7.40;99.90
70550;DHT22;58101;48.658;2.328;2024-03-02T09:35:32;7.30;99.90
70550;DHT22;58101;48.658;2.328;2024-03-02T09:37:58;7.30;99.90
70550;DHT22;58101;48.658;2.328;2024-03-02T09:40:23;7.40;99.90
70550;DHT22;58101;48.658;2.328;2024-03-02T09:42:49;7.50;99.90
70550;DHT22;58101;48.658;2.328;2024-03-02T09:45:27;7.50;99.90
70550;DHT22;58101;48.658;2.328;2024-03-02T09:47:53;7.60;99.90
70550;DHT22;58101;48.658;2.328;2024-03-02T09:50:18;7.70;99.90
70550;DHT22;58101;48.658;2.328;2024-03-02T09:52:44;7.70;99.90
70550;DHT22;58101;48.658;2.328;2024-03-02T09:55:13;7.80;99.90
70550;DHT22;58101;48.658;2.328;2024-03-02T09:57:39;7.90;99.90
70550;DHT22;58101;48.658;2.328;2024-03-02T10:00:08;8.00;99.90
70550;DHT22;58101;48.658;2.328;2024-03-02T10:02:34;8.00;99.90
70550;DHT22;58101;48.658;2.328;2024-03-02T10:04:59;8.10;99.90
70550;DHT22;58101;48.658;2.328;2024-03-02T10:07:25;8.00;99.90
70550;DHT22;58101;48.658;2.328;2024-03-02T10:09:50;8.00;99.90
70550;DHT22;58101;48.658;2.328;2024-03-02T10:12:18;8.00;99.90
70550;DHT22;58101;48.658;2.328;2024-03-02T10:14:44;8.00;99.90
70550;DHT22;58101;48.658;2.328;2024-03-02T10:17:14;8.10;99.90
70550;DHT22;58101;48.658;2.328;2024-03-02T10:19:41;8.10;99.90
70550;DHT22;58101;48.658;2.328;2024-03-02T10:22:08;8.10;99.90
70550;DHT22;58101;48.658;2.328;2024-03-02T10:24:42;8.10;99.90
70550;DHT22;58101;48.658;2.328;2024-03-02T10:27:22;8.00;99.90
70550;DHT22;58101;48.658;2.328;2024-03-02T10:29:49;8.00;99.90
70550;DHT22;58101;48.658;2.328;2024-03-02T10:32:15;8.10;99.90
70550;DHT22;58101;48.658;2.328;2024-03-02T10:34:42;8.10;99.90
70550;DHT22;58101;48.658;2.328;2024-03-02T10:37:08;8.10;99.90
70550;DHT22;58101;48.658;2.328;2024-03-02T10:39:35;8.10;99.90
70550;DHT22;58101;48.658;2.328;2024-03-02T10:42:02;8.10;99.90
70550;DHT22;58101;48.658;2.328;2024-03-02T10:44:29;8.10;99.90
70550;DHT22;58101;48.658;2.328;2024-03-02T10:46:56;8.10;99.90
70550;DHT22;58101;48.658;2.328;2024-03-02T10:49:23;7.90;99.90
70550;DHT22;58101;48.658;2.328;2024-03-02T10:51:49;7.80;99.90
70550;DHT22;58101;48.658;2.328;2024-03-02T10:54:15;7.70;99.90
70550;DHT22;58101;48.658;2.328;2024-03-02T10:56:43;7.70;99.90
70550;DHT22;58101;48.658;2.328;2024-03-02T11:01:43;7.60;99.90
70550;DHT22;58101;48.658;2.328;2024-03-02T11:04:09;7.60;99.90
70550;DHT22;58101;48.658;2.328;2024-03-02T11:06:36;7.70;99.90
70550;DHT22;58101;48.658;2.328;2024-03-02T11:09:07;7.80;99.90
70550;DHT22;58101;48.658;2.328;2024-03-02T11:11:43;7.80;99.90
70550;DHT22;58101;48.658;2.328;2024-03-02T11:14:14;7.90;99.90
70550;DHT22;58101;48.658;2.328;2024-03-02T11:16:42;7.90;99.90
70550;DHT22;58101;48.658;2.328;2024-03-02T11:19:13;8.00;99.90
70550;DHT22;58101;48.658;2.328;2024-03-02T11:21:39;7.90;99.90
70550;DHT22;58101;48.658;2.328;2024-03-02T11:26:46;7.90;99.90
70550;DHT22;58101;48.658;2.328;2024-03-02T11:32:05;7.90;99.90
70550;DHT22;58101;48.658;2.328;2024-03-02T11:34:34;7.90;99.90
70550;DHT22;58101;48.658;2.328;2024-03-02T11:37:04;7.90;99.90
70550;DHT22;58101;48.658;2.328;2024-03-02T11:39:30;7.90;99.90
70550;DHT22;58101;48.658;2.328;2024-03-02T11:41:59;7.90;99.90
70550;DHT22;58101;48.658;2.328;2024-03-02T11:44:27;7.90;99.90
70550;DHT22;58101;48.658;2.328;2024-03-02T11:46:58;8.00;99.90
70550;DHT22;58101;48.658;2.328;2024-03-02T11:52:10;7.90;99.90
70550;DHT22;58101;48.658;2.328;2024-03-02T11:54:41;7.90;99.90
70550;DHT22;58101;48.658;2.328;2024-03-02T11:57:13;8.10;99.90
70550;DHT22;58101;48.658;2.328;2024-03-02T11:59:40;7.80;99.90
70550;DHT22;58101;48.658;2.328;2024-03-02T12:02:06;7.80;99.90
70550;DHT22;58101;48.658;2.328;2024-03-02T12:04:31;7.70;99.90
70550;DHT22;58101;48.658;2.328;2024-03-02T12:06:59;7.70;99.90
70550;DHT22;58101;48.658;2.328;2024-03-02T12:09:28;7.70;99.90
70550;DHT22;58101;48.658;2.328;2024-03-02T12:12:06;7.70;99.90
70550;DHT22;58101;48.658;2.328;2024-03-02T12:14:33;7.80;99.90
70550;DHT22;58101;48.658;2.328;2024-03-02T12:16:59;7.80;99.90
70550;DHT22;58101;48.658;2.328;2024-03-02T12:19:28;7.80;99.90
70550;DHT22;58101;48.658;2.328;2024-03-02T12:21:56;7.90;99.90
70550;DHT22;58101;48.658;2.328;2024-03-02T12:24:22;7.90;99.90
70550;DHT22;58101;48.658;2.328;2024-03-02T12:26:52;8.00;99.90
70550;DHT22;58101;48.658;2.328;2024-03-02T12:29:19;8.10;99.90
70550;DHT22;58101;48.658;2.328;2024-03-02T12:31:51;8.20;99.90
70550;DHT22;58101;48.658;2.328;2024-03-02T12:34:18;8.20;99.90
70550;DHT22;58101;48.658;2.328;2024-03-02T12:36:47;8.20;99.90
70550;DHT22;58101;48.658;2.328;2024-03-02T12:39:16;8.30;99.90
70550;DHT22;58101;48.658;2.328;2024-03-02T12:41:42;8.30;99.90
70550;DHT22;58101;48.658;2.328;2024-03-02T12:44:08;8.30;99.90
70550;DHT22;58101;48.658;2.328;2024-03-02T12:46:34;8.30;99.90
70550;DHT22;58101;48.658;2.328;2024-03-02T12:49:11;8.40;99.90
70550;DHT22;58101;48.658;2.328;2024-03-02T12:51:41;8.50;99.90
70550;DHT22;58101;48.658;2.328;2024-03-02T12:54:10;8.40;99.90
70550;DHT22;58101;48.658;2.328;2024-03-02T12:56:37;8.40;99.90
70550;DHT22;58101;48.658;2.328;2024-03-02T12:59:03;8.40;99.90
70550;DHT22;58101;48.658;2.328;2024-03-02T13:01:29;8.50;99.90
70550;DHT22;58101;48.658;2.328;2024-03-02T13:03:55;8.50;99.90
70550;DHT22;58101;48.658;2.328;2024-03-02T13:06:21;8.50;99.90
70550;DHT22;58101;48.658;2.328;2024-03-02T13:08:47;8.50;99.90
70550;DHT22;58101;48.658;2.328;2024-03-02T13:11:13;8.50;99.90
70550;DHT22;58101;48.658;2.328;2024-03-02T13:13:40;8.50;99.90
70550;DHT22;58101;48.658;2.328;2024-03-02T13:16:12;8.50;99.90
70550;DHT22;58101;48.658;2.328;2024-03-02T13:18:41;8.50;99.90
70550;DHT22;58101;48.658;2.328;2024-03-02T13:21:08;8.60;99.90
70550;DHT22;58101;48.658;2.328;2024-03-02T13:23:34;8.50;99.90
70550;DHT22;58101;48.658;2.328;2024-03-02T13:26:00;8.50;99.90
70550;DHT22;58101;48.658;2.328;2024-03-02T13:28:25;8.60;99.90
70550;DHT22;58101;48.658;2.328;2024-03-02T13:30:51;8.70;99.90
70550;DHT22;58101;48.658;2.328;2024-03-02T13:33:17;8.70;99.90
70550;DHT22;58101;48.658;2.328;2024-03-02T13:35:51;8.80;99.90
70550;DHT22;58101;48.658;2.328;2024-03-02T13:38:20;8.70;99.90
70550;DHT22;58101;48.658;2.328;2024-03-02T13:40:47;8.80;99.90
70550;DHT22;58101;48.658;2.328;2024-03-02T13:43:16;8.80;99.90
70550;DHT22;58101;48.658;2.328;2024-03-02T13:45:42;8.80;99.90
70550;DHT22;58101;48.658;2.328;2024-03-02T13:48:08;8.70;99.90
70550;DHT22;58101;48.658;2.328;2024-03-02T13:50:33;8.70;99.90
70550;DHT22;58101;48.658;2.328;2024-03-02T13:52:59;8.70;99.90
70550;DHT22;58101;48.658;2.328;2024-03-02T13:55:25;8.70;99.90
70550;DHT22;58101;48.658;2.328;2024-03-02T13:57:50;8.80;99.90
70550;DHT22;58101;48.658;2.328;2024-03-02T14:00:17;8.70;99.90
70550;DHT22;58101;48.658;2.328;2024-03-02T14:02:43;8.70;99.90
70550;DHT22;58101;48.658;2.328;2024-03-02T14:05:09;8.70;99.90
70550;DHT22;58101;48.658;2.328;2024-03-02T14:07:37;8.70;99.90
70550;DHT22;58101;48.658;2.328;2024-03-02T14:10:03;8.70;99.90
70550;DHT22;58101;48.658;2.328;2024-03-02T14:12:29;8.70;99.90
70550;DHT22;58101;48.658;2.328;2024-03-02T14:14:56;8.70;99.90
70550;DHT22;58101;48.658;2.328;2024-03-02T14:17:24;8.70;99.90
70550;DHT22;58101;48.658;2.328;2024-03-02T14:19:50;8.80;99.90
70550;DHT22;58101;48.658;2.328;2024-03-02T14:22:16;8.70;99.90
70550;DHT22;58101;48.658;2.328;2024-03-02T14:24:43;8.70;99.90
70550;DHT22;58101;48.658;2.328;2024-03-02T14:27:09;8.60;99.90
70550;DHT22;58101;48.658;2.328;2024-03-02T14:29:34;8.70;99.90
70550;DHT22;58101;48.658;2.328;2024-03-02T14:32:06;8.50;99.90
70550;DHT22;58101;48.658;2.328;2024-03-02T14:34:31;8.50;99.90
70550;DHT22;58101;48.658;2.328;2024-03-02T14:36:58;8.50;99.90
70550;DHT22;58101;48.658;2.328;2024-03-02T14:39:24;8.50;99.90
70550;DHT22;58101;48.658;2.328;2024-03-02T14:41:50;8.50;99.90
70550;DHT22;58101;48.658;2.328;2024-03-02T14:44:15;8.40;99.90
70550;DHT22;58101;48.658;2.328;2024-03-02T14:46:42;8.40;99.90
70550;DHT22;58101;48.658;2.328;2024-03-02T14:49:08;8.40;99.90
70550;DHT22;58101;48.658;2.328;2024-03-02T14:51:33;8.40;99.90
70550;DHT22;58101;48.658;2.328;2024-03-02T14:53:59;8.40;99.90
70550;DHT22;58101;48.658;2.328;2024-03-02T14:56:24;8.40;99.90
70550;DHT22;58101;48.658;2.328;2024-03-02T14:58:50;8.40;99.90
70550;DHT22;58101;48.658;2.328;2024-03-02T15:01:16;8.40;99.90
70550;DHT22;58101;48.658;2.328;2024-03-02T15:03:43;8.40;99.90
70550;DHT22;58101;48.658;2.328;2024-03-02T15:06:09;8.30;99.90
70550;DHT22;58101;48.658;2.328;2024-03-02T15:08:35;8.30;99.90
70550;DHT22;58101;48.658;2.328;2024-03-02T15:11:01;8.30;99.90
70550;DHT22;58101;48.658;2.328;2024-03-02T15:13:27;8.40;99.90
70550;DHT22;58101;48.658;2.328;2024-03-02T15:15:53;8.30;99.90
70550;DHT22;58101;48.658;2.328;2024-03-02T15:18:18;8.40;99.90
70550;DHT22;58101;48.658;2.328;2024-03-02T15:20:44;8.30;99.90
70550;DHT22;58101;48.658;2.328;2024-03-02T15:23:10;8.30;99.90
70550;DHT22;58101;48.658;2.328;2024-03-02T15:25:35;8.30;99.90
70550;DHT22;58101;48.658;2.328;2024-03-02T15:28:01;8.30;99.90
70550;DHT22;58101;48.658;2.328;2024-03-02T15:30:27;8.30;99.90
70550;DHT22;58101;48.658;2.328;2024-03-02T15:32:52;8.30;99.90
70550;DHT22;58101;48.658;2.328;2024-03-02T15:35:18;8.30;99.90
70550;DHT22;58101;48.658;2.328;2024-03-02T15:37:43;8.30;99.90
70550;DHT22;58101;48.658;2.328;2024-03-02T15:40:09;8.30;99.90
70550;DHT22;58101;48.658;2.328;2024-03-02T15:42:35;8.30;99.90
70550;DHT22;58101;48.658;2.328;2024-03-02T15:45:01;8.30;99.90
70550;DHT22;58101;48.658;2.328;2024-03-02T15:47:27;8.30;99.90
70550;DHT22;58101;48.658;2.328;2024-03-02T15:49:53;8.20;99.90
70550;DHT22;58101;48.658;2.328;2024-03-02T15:52:19;8.30;99.90
70550;DHT22;58101;48.658;2.328;2024-03-02T15:54:45;8.20;99.90
70550;DHT22;58101;48.658;2.328;2024-03-02T15:57:11;8.20;99.90